Time;durP1;ratioP1;P1;durP2;ratioP2;P2;SDS_P1;SDS_P2;PMS_P1;PMS_P2;Temp;Humidity;BMP_temperature;BMP_pressure;BME280_temperature;BME280_humidity;BME280_pressure;Samples;Min_cycle;Max_cycle;Signal;HPM_P1;HPM_P2
2023/04/24 00:01:07;;;;;;;1.17;0.90;;;;;;;9.01;100.00;99855.31;6101695;23;20082;-79
2023/04/24 00:03:34;;;;;;;7.78;1.10;;;;;;;8.99;100.00;99851.66;6102300;23;20019;-79
2023/04/24 00:06:02;;;;;;;0.93;0.93;;;;;;;8.95;100.00;99849.16;6075287;23;20018;-78
2023/04/24 00:08:28;;;;;;;1.40;1.10;;;;;;;8.95;100.00;99853.72;6102552;23;20071;-79
2023/04/24 00:10:55;;;;;;;1.25;0.95;;;;;;;8.92;100.00;99862.59;6100023;23;20079;-79
2023/04/24 00:13:21;;;;;;;1.00;1.00;;;;;;;8.88;100.00;99857.44;6102479;23;20015;-79
2023/04/24 00:15:48;;;;;;;2.08;1.33;;;;;;;8.87;100.00;99863.94;6099955;23;20043;-79
2023/04/24 00:18:15;;;;;;;1.40;1.30;;;;;;;8.85;100.00;99871.59;6100198;23;20019;-79
2023/04/24 00:20:43;;;;;;;1.90;1.48;;;;;;;8.87;100.00;99871.16;6099967;23;20023;-79
2023/04/24 00:23:09;;;;;;;2.00;1.52;;;;;;;8.88;100.00;99876.00;6099986;23;20457;-79
2023/04/24 00:25:36;;;;;;;1.40;1.40;;;;;;;8.86;100.00;99870.41;6100786;23;20562;-79
2023/04/24 00:28:02;;;;;;;1.83;1.73;;;;;;;8.85;100.00;99870.84;6099982;23;20019;-79
2023/04/24 00:30:29;;;;;;;1.60;1.50;;;;;;;8.84;100.00;99880.75;6074950;23;20027;-79
2023/04/24 00:32:56;;;;;;;1.60;1.60;;;;;;;8.84;100.00;99880.00;6099821;23;20022;-79
2023/04/24 00:35:23;;;;;;;1.55;1.50;;;;;;;8.81;100.00;99878.25;6050376;23;20023;-79
2023/04/24 00:37:50;;;;;;;2.30;1.70;;;;;;;8.77;100.00;99873.13;6100289;23;20042;-79
2023/04/24 00:40:16;;;;;;;1.70;1.60;;;;;;;8.75;100.00;99877.41;6074203;23;20027;-79
2023/04/24 00:42:43;;;;;;;1.60;1.50;;;;;;;8.70;100.00;99878.75;6074297;23;20022;-79
2023/04/24 00:45:11;;;;;;;1.80;1.70;;;;;;;8.70;100.00;99878.75;6100404;23;20018;-79
2023/04/24 00:47:38;;;;;;;1.88;1.77;;;;;;;8.69;100.00;99887.88;6100582;23;20022;-79
2023/04/24 00:50:06;;;;;;;1.90;1.80;;;;;;;8.67;100.00;99884.94;6099440;23;20063;-79
2023/04/24 00:52:33;;;;;;;3.33;2.30;;;;;;;8.68;100.00;99887.16;6100654;23;20020;-79
2023/04/24 00:55:00;;;;;;;2.00;1.90;;;;;;;8.67;100.00;99888.31;6099769;23;20634;-79
2023/04/24 00:57:27;;;;;;;2.38;2.28;;;;;;;8.69;100.00;99898.50;6074093;23;20457;-78
2023/04/24 00:59:54;;;;;;;2.38;2.28;;;;;;;8.68;100.00;99897.03;6100280;23;20019;-79
2023/04/24 01:02:22;;;;;;;2.70;2.50;;;;;;;8.69;100.00;99904.53;6100249;23;20106;-79
2023/04/24 01:04:50;;;;;;;3.70;2.50;;;;;;;8.69;100.00;99893.19;6073369;23;20019;-79
2023/04/24 01:07:20;;;;;;;2.58;2.47;;;;;;;8.67;100.00;99901.59;6100238;23;20042;-79
2023/04/24 01:09:48;;;;;;;2.78;2.60;;;;;;;8.66;100.00;99900.13;6100161;23;20022;-79
2023/04/24 01:12:15;;;;;;;2.72;2.53;;;;;;;8.67;100.00;99895.56;6099923;23;20515;-79
2023/04/24 01:14:44;;;;;;;3.55;2.78;;;;;;;8.65;100.00;99905.88;6074142;23;20042;-79
2023/04/24 01:17:11;;;;;;;2.88;2.70;;;;;;;8.64;100.00;99907.78;6099869;23;20026;-79
2023/04/24 01:19:38;;;;;;;3.30;3.10;;;;;;;8.64;100.00;99907.06;6099816;23;20058;-79
2023/04/24 01:22:11;;;;;;;3.20;3.00;;;;;;;8.64;100.00;99910.44;6099404;23;20019;-79
2023/04/24 01:24:38;;;;;;;3.17;3.00;;;;;;;8.65;100.00;99919.13;6100644;23;20090;-79
2023/04/24 01:27:06;;;;;;;2.83;2.72;;;;;;;8.66;100.00;99916.03;6099664;23;20018;-78
2023/04/24 01:29:33;;;;;;;2.95;2.80;;;;;;;8.67;100.00;99917.50;6074449;23;20057;-79
2023/04/24 01:32:02;;;;;;;3.38;3.17;;;;;;;8.67;100.00;99917.50;6099701;23;20037;-79
2023/04/24 01:34:29;;;;;;;4.47;3.30;;;;;;;8.69;100.00;99914.41;6099853;23;20023;-78
2023/04/24 01:36:56;;;;;;;4.18;3.33;;;;;;;8.70;100.00;99918.53;6099611;23;20022;-79
2023/04/24 01:39:25;;;;;;;5.43;3.30;;;;;;;8.69;100.00;99915.16;6074367;23;20018;-79
2023/04/24 01:41:53;;;;;;;3.72;3.47;;;;;;;8.69;100.00;99920.47;6073854;23;20029;-79
2023/04/24 01:44:20;;;;;;;3.83;3.63;;;;;;;8.73;100.00;99916.91;6100014;23;20015;-79
2023/04/24 01:46:47;;;;;;;3.97;3.78;;;;;;;8.71;100.00;99914.72;6099964;23;20437;-80
2023/04/24 01:49:13;;;;;;;3.83;3.53;;;;;;;8.72;100.00;99912.78;6099421;23;20513;-79
2023/04/24 01:51:40;;;;;;;3.97;3.78;;;;;;;8.72;100.00;99929.44;6074446;23;20019;-79
2023/04/24 01:54:06;;;;;;;3.83;3.63;;;;;;;8.72;100.00;99915.44;6100209;23;20019;-80
2023/04/24 01:56:38;;;;;;;4.00;3.78;;;;;;;8.72;100.00;99924.13;6100517;23;20099;-79
2023/04/24 01:59:05;;;;;;;4.60;3.92;;;;;;;8.73;100.00;99916.91;6073396;23;20050;-79
2023/04/24 02:01:36;;;;;;;4.57;3.90;;;;;;;8.73;100.00;99920.31;6099948;23;20015;-79
2023/04/24 02:04:03;;;;;;;4.30;3.75;;;;;;;8.75;100.00;99922.50;6073772;23;20022;-80
2023/04/24 02:06:31;;;;;;;4.25;3.95;;;;;;;8.74;100.00;99927.09;6100254;23;20014;-80
2023/04/24 02:09:00;;;;;;;4.50;3.55;;;;;;;8.74;100.00;99924.44;6099509;23;20512;-80
2023/04/24 02:11:27;;;;;;;4.15;3.85;;;;;;;8.74;100.00;99921.03;6050635;23;20079;-80
2023/04/24 02:13:54;;;;;;;3.92;3.38;;;;;;;8.76;100.00;99924.00;6098216;23;20029;-80
2023/04/24 02:16:20;;;;;;;3.38;3.10;;;;;;;8.73;100.00;99922.97;6099419;23;20015;-80
2023/04/24 02:18:47;;;;;;;3.95;3.75;;;;;;;8.73;100.00;99922.97;6099754;23;20090;-80
2023/04/24 02:21:13;;;;;;;3.83;3.63;;;;;;;8.72;100.00;99916.19;6100038;23;20019;-80
2023/04/24 02:23:41;;;;;;;3.65;3.35;;;;;;;8.73;100.00;99924.88;6099019;23;20445;-79
2023/04/24 02:26:07;;;;;;;4.78;2.97;;;;;;;8.71;100.00;99924.59;6099764;23;20026;-80
2023/04/24 02:28:34;;;;;;;3.53;3.28;;;;;;;8.71;100.00;99927.25;6100180;23;20150;-80
2023/04/24 02:31:00;;;;;;;3.70;3.05;;;;;;;8.69;100.00;99920.47;6098881;23;20484;-80
2023/04/24 02:33:27;;;;;;;3.30;3.10;;;;;;;8.71;100.00;99922.66;6100286;23;20015;-79
2023/04/24 02:35:53;;;;;;;3.17;2.97;;;;;;;8.68;100.00;99926.22;6099746;23;20015;-80
2023/04/24 02:38:20;;;;;;;3.10;2.90;;;;;;;8.68;100.00;99918.25;6073469;23;20083;-80
2023/04/24 02:40:46;;;;;;;3.20;3.00;;;;;;;8.68;100.00;99918.97;6100003;23;20082;-79
2023/04/24 02:43:13;;;;;;;3.20;3.00;;;;;;;8.66;100.00;99921.34;6099683;23;20019;-80
2023/04/24 02:45:39;;;;;;;3.42;3.22;;;;;;;8.66;100.00;99931.22;6073815;23;20023;-80
2023/04/24 02:48:06;;;;;;;5.55;3.80;;;;;;;8.66;100.00;99929.31;6099363;23;20106;-80
2023/04/24 02:50:33;;;;;;;3.88;3.58;;;;;;;8.66;100.00;99921.34;6100189;23;20025;-80
2023/04/24 02:53:00;;;;;;;4.15;3.80;;;;;;;8.67;100.00;99922.09;6099171;23;20015;-80
2023/04/24 02:55:26;;;;;;;3.38;3.10;;;;;;;8.67;100.00;99924.75;6074169;23;20082;-80
2023/04/24 02:57:53;;;;;;;3.47;3.28;;;;;;;8.69;100.00;99925.03;6071692;23;20083;-79
2023/04/24 03:00:20;;;;;;;3.55;3.35;;;;;;;8.72;100.00;99924.13;6072806;23;20046;-80
2023/04/24 03:02:47;;;;;;;5.50;3.72;;;;;;;8.71;100.00;99919.28;6099581;23;20019;-80
2023/04/24 03:05:13;;;;;;;3.60;3.40;;;;;;;8.69;100.00;99920.47;6099672;23;20015;-79
2023/04/24 03:07:40;;;;;;;3.75;3.55;;;;;;;8.69;100.00;99919.72;6099804;23;20027;-80
2023/04/24 03:10:07;;;;;;;3.58;3.38;;;;;;;8.68;100.00;99918.97;6099322;23;20493;-79
2023/04/24 03:12:34;;;;;;;3.58;3.38;;;;;;;8.68;100.00;99926.22;6073782;23;20426;-79
2023/04/24 03:15:00;;;;;;;3.75;3.55;;;;;;;8.69;100.00;99925.75;6098468;23;20026;-79
2023/04/24 03:17:27;;;;;;;3.65;3.35;;;;;;;8.68;100.00;99921.63;6099895;23;20101;-79
2023/04/24 03:19:53;;;;;;;3.33;3.13;;;;;;;8.67;100.00;99925.47;6099435;23;20054;-79
2023/04/24 03:22:20;;;;;;;3.45;3.20;;;;;;;8.68;100.00;99918.97;6073519;23;20093;-79
2023/04/24 03:24:46;;;;;;;3.35;3.13;;;;;;;8.66;100.00;99918.69;6073450;23;20663;-79
2023/04/24 03:27:16;;;;;;;3.20;3.00;;;;;;;8.67;100.00;99920.16;6073714;23;20065;-79
2023/04/24 03:29:55;;;;;;;3.58;3.25;;;;;;;8.66;100.00;99920.59;6073466;23;20019;-79
2023/04/24 03:32:27;;;;;;;3.78;3.13;;;;;;;8.63;100.00;99921.50;6073871;23;20019;-79
2023/04/24 03:34:53;;;;;;;3.40;3.20;;;;;;;8.66;100.00;99925.91;6073340;23;20365;-79
2023/04/24 03:37:20;;;;;;;3.30;3.10;;;;;;;8.66;100.00;99924.00;6073587;23;20027;-79
2023/04/24 03:40:01;;;;;;;3.50;3.30;;;;;;;8.66;100.00;99925.91;6073087;23;20145;-79
2023/04/24 03:42:28;;;;;;;3.65;3.38;;;;;;;8.66;100.00;99928.56;6073506;23;20043;-79
2023/04/24 03:44:55;;;;;;;4.18;3.78;;;;;;;8.68;100.00;99929.59;6072583;23;20407;-78
2023/04/24 03:47:26;;;;;;;4.05;3.75;;;;;;;8.71;100.00;99924.59;6073656;23;20025;-78
2023/04/24 03:49:56;;;;;;;3.88;3.63;;;;;;;8.70;100.00;99931.81;6073182;23;20019;-81
2023/04/24 03:52:23;;;;;;;3.65;3.45;;;;;;;8.69;100.00;99925.75;6075025;23;20048;-80
2023/04/24 03:54:50;;;;;;;4.35;4.05;;;;;;;8.71;100.00;99924.59;6074280;23;20023;-80
2023/04/24 03:57:16;;;;;;;4.10;3.65;;;;;;;8.72;100.00;99926.78;6100413;23;20023;-79
2023/04/24 03:59:55;;;;;;;3.97;3.70;;;;;;;8.73;100.00;99932.84;6098816;23;20476;-80
2023/04/24 04:02:23;;;;;;;3.55;3.35;;;;;;;8.71;100.00;99930.63;6074700;23;20050;-80
2023/04/24 04:04:50;;;;;;;3.95;3.65;;;;;;;8.70;100.00;99931.81;6074447;23;20069;-80
2023/04/24 04:07:17;;;;;;;3.60;3.30;;;;;;;8.69;100.00;99936.38;6074708;23;20449;-79
2023/04/24 04:09:43;;;;;;;3.50;3.30;;;;;;;8.68;100.00;99940.22;6100454;23;20019;-79
2023/04/24 04:12:10;;;;;;;3.75;3.45;;;;;;;8.69;100.00;99947.00;6074059;23;20025;-79
2023/04/24 04:14:38;;;;;;;3.78;3.30;;;;;;;8.70;100.00;99945.06;6074640;23;20030;-79
2023/04/24 04:17:04;;;;;;;4.05;3.67;;;;;;;8.70;100.00;99945.06;6074214;23;20054;-79
2023/04/24 04:19:31;;;;;;;4.47;4.05;;;;;;;8.71;100.00;99951.84;6074959;23;20094;-79
2023/04/24 04:21:58;;;;;;;3.65;3.42;;;;;;;8.75;100.00;99957.00;6074260;23;20102;-79
2023/04/24 04:24:37;;;;;;;3.70;3.40;;;;;;;8.73;100.00;99952.16;6074345;23;20037;-79
2023/04/24 04:27:05;;;;;;;3.70;3.40;;;;;;;8.74;100.00;99955.53;6098351;23;20030;-81
2023/04/24 04:29:38;;;;;;;18.40;4.13;;;;;;;8.73;100.00;99954.06;6075195;23;20023;-81
2023/04/24 04:32:07;;;;;;;4.35;4.03;;;;;;;8.75;100.00;99951.72;6074874;23;20022;-80
2023/04/24 04:34:34;;;;;;;3.95;3.63;;;;;;;8.77;100.00;99949.34;6075052;23;20410;-79
2023/04/24 04:37:01;;;;;;;4.05;3.75;;;;;;;8.78;100.00;99959.50;6074653;23;20093;-75
2023/04/24 04:39:39;;;;;;;4.65;4.25;;;;;;;8.80;100.00;99961.69;6075232;23;20022;-79
2023/04/24 04:42:10;;;;;;;;;;;;;;;8.81;100.00;99966.56;6075084;23;20023;-79
2023/04/24 04:44:42;;;;;;;4.63;4.22;;;;;;;8.83;100.00;99974.06;6076378;23;19921;-77
2023/04/24 04:47:14;;;;;;;4.30;4.00;;;;;;;8.85;100.00;99977.03;6075310;23;20026;-75
2023/04/24 04:49:41;;;;;;;4.53;4.22;;;;;;;8.85;100.00;99979.69;6075368;23;20022;-80
2023/04/24 04:52:17;;;;;;;4.82;4.03;;;;;;;8.86;100.00;99978.50;6075043;23;20233;-80
2023/04/24 04:54:46;;;;;;;3.95;3.45;;;;;;;8.83;100.00;99982.78;6075022;23;20026;-80
2023/04/24 04:57:13;;;;;;;4.70;4.40;;;;;;;8.82;100.00;99985.88;6074421;23;20428;-78
2023/04/24 04:59:40;;;;;;;4.32;3.90;;;;;;;8.84;100.00;99986.16;6046669;23;20024;-78
2023/04/24 05:02:14;;;;;;;4.18;3.78;;;;;;;8.84;100.00;99994.88;6070348;23;20031;-78
2023/04/24 05:04:41;;;;;;;4.20;3.80;;;;;;;8.84;100.00;99991.47;6070174;23;20031;-78
2023/04/24 05:07:08;;;;;;;4.05;3.65;;;;;;;8.82;100.00;99993.84;6070234;23;20121;-78
2023/04/24 05:09:38;;;;;;;4.78;3.38;;;;;;;8.83;100.00;100005.94;6070541;23;20019;-77
2023/04/24 05:12:05;;;;;;;3.83;3.50;;;;;;;8.85;100.00;100012.25;6069593;23;20046;-77
2023/04/24 05:14:37;;;;;;;4.28;3.78;;;;;;;8.85;100.00;100017.56;6047656;23;20079;-78
2023/04/24 05:17:04;;;;;;;3.90;3.50;;;;;;;8.89;100.00;100012.13;6070759;23;20027;-78
2023/04/24 05:19:35;;;;;;;3.85;3.55;;;;;;;8.91;100.00;100015.06;6046797;23;20473;-77
2023/04/24 05:22:04;;;;;;;3.88;3.67;;;;;;;8.96;100.00;100023.16;6070064;23;20023;-77
2023/04/24 05:24:33;;;;;;;4.20;3.90;;;;;;;8.98;100.00;100028.78;6069638;23;20466;-77
2023/04/24 05:27:20;;;;;;;4.63;4.22;;;;;;;8.97;100.00;100026.56;6056290;23;20038;-77
2023/04/24 05:29:48;;;;;;;4.03;3.72;;;;;;;8.94;100.00;100033.50;6070289;23;20057;-77
2023/04/24 05:32:14;;;;;;;4.70;3.03;;;;;;;8.92;100.00;100043.09;6070208;23;20019;-78
2023/04/24 05:34:41;;;;;;;3.65;3.45;;;;;;;8.89;100.00;100051.94;6070442;23;20439;-77
2023/04/24 05:37:09;;;;;;;3.78;2.92;;;;;;;8.88;100.00;100050.44;6069970;23;20462;-77
2023/04/24 05:39:36;;;;;;;4.65;3.47;;;;;;;8.87;100.00;100047.06;6069638;23;20024;-78
2023/04/24 05:42:04;;;;;;;3.35;3.05;;;;;;;8.83;100.00;100056.34;6069831;23;20098;-78
2023/04/24 05:44:31;;;;;;;3.53;3.22;;;;;;;8.79;100.00;100056.53;6071995;23;20034;-78
2023/04/24 05:46:58;;;;;;;4.55;3.30;;;;;;;8.78;100.00;100068.31;6071966;23;20047;-79
2023/04/24 05:49:25;;;;;;;3.35;3.13;;;;;;;8.73;100.00;100071.56;6072415;23;20390;-78
2023/04/24 05:51:53;;;;;;;4.30;3.50;;;;;;;8.69;100.00;100069.06;6070210;23;20020;-78
2023/04/24 05:54:19;;;;;;;3.92;3.03;;;;;;;8.65;100.00;100073.03;6069536;23;20026;-79
2023/04/24 05:56:46;;;;;;;3.38;3.08;;;;;;;8.66;100.00;100069.94;6070355;23;20034;-79
2023/04/24 05:59:20;;;;;;;2.88;2.67;;;;;;;8.61;100.00;100083.78;6070238;23;20023;-78
2023/04/24 06:01:47;;;;;;;3.47;3.22;;;;;;;8.60;100.00;100089.53;6070769;23;20023;-79
2023/04/24 06:04:17;;;;;;;3.30;2.95;;;;;;;8.57;100.00;100101.03;6069917;23;20023;-79
2023/04/24 06:06:45;;;;;;;6.68;2.90;;;;;;;8.55;100.00;100098.06;6070357;23;20058;-79
2023/04/24 06:09:12;;;;;;;3.35;2.58;;;;;;;8.52;100.00;100107.63;6069354;23;20023;-76
2023/04/24 06:11:38;;;;;;;2.53;2.33;;;;;;;8.50;100.00;100115.31;6070228;23;20472;-76
2023/04/24 06:14:07;;;;;;;1.77;1.60;;;;;;;8.49;100.00;100111.16;6069559;23;20083;-78
2023/04/24 06:16:38;;;;;;;2.22;1.15;;;;;;;8.43;100.00;100115.56;6071877;23;20068;-76
2023/04/24 06:19:15;;;;;;;0.68;0.68;;;;;;;8.39;100.00;100125.63;6070190;23;20613;-78
2023/04/24 06:21:41;;;;;;;0.90;0.90;;;;;;;8.37;100.00;100127.97;6070212;23;20087;-83
2023/04/24 06:24:09;;;;;;;4.32;1.00;;;;;;;8.33;100.00;100130.75;6069723;23;20078;-82
2023/04/24 06:26:35;;;;;;;2.60;0.80;;;;;;;8.34;100.00;100137.53;6071011;23;20478;-86
2023/04/24 06:29:02;;;;;;;0.70;0.70;;;;;;;8.33;100.00;100138.72;6070235;23;20027;-83
2023/04/24 06:31:28;;;;;;;0.50;0.50;;;;;;;8.26;100.00;100144.25;6072397;23;20015;-84
2023/04/24 06:33:55;;;;;;;0.98;0.73;;;;;;;8.23;100.00;100155.72;6070457;23;20023;-84
2023/04/24 06:36:23;;;;;;;0.95;0.70;;;;;;;8.22;100.00;100151.59;6046779;23;20059;-82
2023/04/24 06:38:49;;;;;;;0.82;0.82;;;;;;;8.20;100.00;100164.56;6071530;23;20119;-82
2023/04/24 06:41:16;;;;;;;1.25;1.00;;;;;;;8.22;100.00;100169.44;6071762;23;20022;-81
2023/04/24 06:43:42;;;;;;;1.80;1.70;;;;;;;8.20;100.00;100172.50;6071793;23;20516;-81
2023/04/24 06:46:09;;;;;;;2.63;2.42;;;;;;;8.22;100.00;100180.03;6071716;23;20020;-78
2023/04/24 06:48:36;;;;;;;3.35;3.15;;;;;;;8.24;100.00;100182.97;6071873;23;20129;-79
2023/04/24 06:51:03;;;;;;;4.93;4.43;;;;;;;8.23;100.00;100192.13;6071549;23;20022;-80
2023/04/24 06:53:29;;;;;;;7.32;5.40;;;;;;;8.24;100.00;100196.25;6071207;23;20022;-80
2023/04/24 06:55:56;;;;;;;8.13;5.85;;;;;;;8.24;100.00;100206.84;6070252;23;20019;-80
2023/04/24 06:58:24;;;;;;;8.45;5.40;;;;;;;8.24;100.00;100217.47;6080947;23;20019;-80
2023/04/24 07:00:50;;;;;;;9.73;6.32;;;;;;;8.24;100.00;100222.75;6101412;23;20034;-81
2023/04/24 07:03:16;;;;;;;8.30;5.47;;;;;;;8.22;100.00;100225.09;6074440;23;20031;-79
2023/04/24 07:05:43;;;;;;;6.85;5.95;;;;;;;8.20;100.00;100241.44;6101188;23;20061;-80
2023/04/24 07:08:11;;;;;;;9.45;6.10;;;;;;;8.20;100.00;100236.16;6100334;23;20464;-80
2023/04/24 07:10:37;;;;;;;8.63;6.47;;;;;;;8.19;100.00;100237.31;6101062;23;20019;-80
2023/04/24 07:13:04;;;;;;;9.15;6.50;;;;;;;8.14;100.00;100248.47;6100612;23;20105;-83
2023/04/24 07:15:32;;;;;;;12.05;6.32;;;;;;;8.14;100.00;100256.44;6100712;23;20023;-82
2023/04/24 07:17:58;;;;;;;11.10;6.43;;;;;;;8.12;100.00;100269.38;6100118;23;20026;-83
2023/04/24 07:20:25;;;;;;;13.63;7.28;;;;;;;8.12;100.00;100276.59;6100450;23;20019;-83
2023/04/24 07:22:53;;;;;;;8.23;6.18;;;;;;;8.10;100.00;100289.56;6100505;23;20090;-88
2023/04/24 07:25:20;;;;;;;10.80;6.82;;;;;;;8.06;100.00;100287.03;6101398;23;20022;-79
2023/04/24 07:27:46;;;;;;;10.98;5.95;;;;;;;8.04;100.00;100302.63;6102052;23;20015;-79
2023/04/24 07:30:13;;;;;;;10.50;6.35;;;;;;;8.01;100.00;100303.47;6101544;23;20019;-79
2023/04/24 07:32:40;;;;;;;18.52;6.28;;;;;;;8.00;100.00;100310.69;6101638;23;20015;-79
2023/04/24 07:35:06;;;;;;;13.43;7.20;;;;;;;8.02;100.00;100307.59;6101022;23;20023;-78
2023/04/24 07:37:33;;;;;;;12.98;6.75;;;;;;;8.02;100.00;100316.31;6101721;23;20015;-79
2023/04/24 07:39:59;;;;;;;14.50;6.60;;;;;;;8.02;100.00;100324.25;6101197;23;20023;-79
2023/04/24 07:42:26;;;;;;;11.68;6.07;;;;;;;8.03;100.00;100323.09;6101624;23;20020;-79
2023/04/24 07:44:52;;;;;;;10.15;7.07;;;;;;;8.06;100.00;100334.75;6051969;23;20066;-78
2023/04/24 07:47:19;;;;;;;13.45;6.57;;;;;;;8.07;100.00;100338.88;6101123;23;20402;-78
2023/04/24 07:49:45;;;;;;;8.93;6.13;;;;;;;8.05;100.00;100349.16;6075523;23;20022;-80
2023/04/24 07:52:12;;;;;;;10.85;5.57;;;;;;;8.07;100.00;100346.81;6101215;23;20015;-76
2023/04/24 07:54:38;;;;;;;12.75;5.85;;;;;;;8.08;100.00;100355.50;6101574;23;20023;-79
2023/04/24 07:57:06;;;;;;;8.52;5.60;;;;;;;8.10;100.00;100358.47;6101137;23;20015;-78
2023/04/24 07:59:33;;;;;;;13.20;5.68;;;;;;;8.09;100.00;100364.94;6101028;23;20015;-78
2023/04/24 08:02:01;;;;;;;8.50;6.13;;;;;;;8.13;100.00;100362.91;6075835;23;20015;-78
2023/04/24 08:04:27;;;;;;;10.77;6.38;;;;;;;8.18;100.00;100370.31;6100678;23;20023;-79
2023/04/24 08:06:54;;;;;;;8.52;6.25;;;;;;;8.19;100.00;100369.16;6101377;23;20449;-79
2023/04/24 08:09:21;;;;;;;10.32;6.20;;;;;;;8.18;100.00;100378.28;6101561;23;20465;-78
2023/04/24 08:11:48;;;;;;;11.65;5.70;;;;;;;8.17;100.00;100395.34;6075551;23;20022;-79
2023/04/24 08:14:14;;;;;;;9.85;6.10;;;;;;;8.15;100.00;100393.13;6101170;23;20153;-78
2023/04/24 08:16:41;;;;;;;14.00;5.72;;;;;;;8.16;100.00;100401.84;6101808;23;20050;-79
2023/04/24 08:19:07;;;;;;;7.88;5.10;;;;;;;8.11;100.00;100411.06;6099499;23;20497;-79
2023/04/24 08:21:34;;;;;;;5.93;4.50;;;;;;;8.07;100.00;100413.09;6075654;23;20019;-79
2023/04/24 08:24:04;;;;;;;10.60;4.95;;;;;;;8.09;100.00;100436.53;6101018;23;20110;-78
2023/04/24 08:26:31;;;;;;;7.30;3.60;;;;;;;8.03;100.00;100431.03;6101431;23;20461;-78
2023/04/24 08:28:58;;;;;;;7.65;3.33;;;;;;;7.93;100.00;100440.09;6100720;23;20019;-77
2023/04/24 08:31:25;;;;;;;9.27;3.97;;;;;;;7.91;100.00;100448.47;6101277;23;20494;-77
2023/04/24 08:33:52;;;;;;;14.65;2.70;;;;;;;7.89;100.00;100448.16;6100638;23;20049;-78
2023/04/24 08:36:19;;;;;;;7.47;2.50;;;;;;;7.94;100.00;100449.53;6100305;23;20014;-79
2023/04/24 08:38:46;;;;;;;7.93;3.47;;;;;;;7.98;100.00;100450.91;6101185;23;20460;-79
2023/04/24 08:41:15;;;;;;;12.57;3.15;;;;;;;8.05;100.00;100463.16;6074484;23;20019;-79
2023/04/24 08:43:43;;;;;;;11.38;2.70;;;;;;;8.14;100.00;100457.94;6075014;23;20098;-79
2023/04/24 08:46:11;;;;;;;11.90;2.90;;;;;;;8.19;100.00;100465.34;6075316;23;20022;-79
2023/04/24 08:48:38;;;;;;;15.30;3.00;;;;;;;8.22;100.00;100469.06;6074634;23;20097;-79
2023/04/24 08:51:07;;;;;;;14.10;3.22;;;;;;;8.28;100.00;100478.69;6074386;23;20029;-78
2023/04/24 08:53:35;;;;;;;13.32;3.10;;;;;;;8.29;100.00;100480.19;6074852;23;20023;-79
2023/04/24 08:56:02;;;;;;;8.68;2.90;;;;;;;8.31;100.00;100483.16;6050758;23;20034;-78
2023/04/24 08:58:30;;;;;;;13.52;3.25;;;;;;;8.34;100.00;100492.94;6100656;23;20015;-79
2023/04/24 09:00:58;;;;;;;10.48;2.58;;;;;;;8.40;100.00;100498.41;6074838;23;20047;-80
2023/04/24 09:03:27;;;;;;;7.68;2.80;;;;;;;8.38;99.36;100494.72;6074484;23;20027;-80
2023/04/24 09:05:55;;;;;;;6.35;2.60;;;;;;;8.35;99.22;100499.72;6075424;23;20019;-80
2023/04/24 09:08:25;;;;;;;3.45;2.22;;;;;;;8.35;98.08;100512.97;6101025;23;20019;-80
2023/04/24 09:10:51;;;;;;;9.27;2.33;;;;;;;8.29;97.73;100517.31;6074504;23;20026;-78
2023/04/24 09:13:19;;;;;;;11.02;2.65;;;;;;;8.31;97.67;100516.88;6100622;23;20034;-79
2023/04/24 09:15:46;;;;;;;11.30;2.65;;;;;;;8.41;97.28;100515.81;6101323;23;20026;-79
2023/04/24 09:18:13;;;;;;;8.45;2.33;;;;;;;8.52;96.67;100516.19;6100080;23;20383;-80
2023/04/24 09:21:00;;;;;;;7.13;2.30;;;;;;;8.67;96.97;100524.44;6101066;23;20480;-79
2023/04/24 09:23:31;;;;;;;9.50;2.20;;;;;;;8.74;96.31;100526.84;6101214;23;20093;-80
2023/04/24 09:26:04;;;;;;;4.43;2.33;;;;;;;8.83;96.09;100531.44;6100794;23;20023;-80
2023/04/24 09:28:39;;;;;;;8.68;2.28;;;;;;;8.93;94.51;100544.38;6101367;23;20043;-79
2023/04/24 09:31:14;;;;;;;10.23;2.30;;;;;;;8.98;93.62;100535.09;6100068;23;20023;-79
2023/04/24 09:33:54;;;;;;;6.43;2.83;;;;;;;9.12;93.21;100558.50;6101147;23;20075;-79
2023/04/24 09:36:39;;;;;;;5.63;2.50;;;;;;;9.17;92.30;100546.59;6101122;23;20026;-78
2023/04/24 09:39:12;;;;;;;9.52;2.50;;;;;;;9.28;91.82;100558.31;6074883;23;20015;-79
2023/04/24 09:41:57;;;;;;;14.05;3.58;;;;;;;9.47;91.19;100559.16;6100972;23;20403;-81
2023/04/24 09:44:27;;;;;;;10.93;2.25;;;;;;;9.66;90.59;100559.97;6101290;23;20027;-81
2023/04/24 09:46:56;;;;;;;5.25;2.25;;;;;;;9.77;90.58;100573.59;6100602;23;20090;-81
2023/04/24 09:49:27;;;;;;;7.75;2.17;;;;;;;9.72;88.95;100573.44;6101021;23;20015;-81
2023/04/24 09:52:04;;;;;;;5.63;2.37;;;;;;;9.56;88.44;100587.69;6101020;23;20022;-79
2023/04/24 09:54:31;;;;;;;6.07;2.25;;;;;;;9.40;87.25;100593.94;6101030;23;20019;-79
2023/04/24 09:56:59;;;;;;;7.75;2.00;;;;;;;9.21;84.96;100590.41;6074636;23;20196;-79
2023/04/24 09:59:26;;;;;;;10.50;2.03;;;;;;;9.09;86.16;100587.84;6070119;23;20465;-79
2023/04/24 10:01:52;;;;;;;8.90;2.33;;;;;;;9.05;86.95;100595.19;6071367;23;20022;-79
2023/04/24 10:04:24;;;;;;;3.03;1.70;;;;;;;9.12;85.23;100592.31;6071261;23;20035;-77
2023/04/24 10:06:53;;;;;;;4.53;1.92;;;;;;;9.16;86.05;100601.63;6071919;23;20022;-76
2023/04/24 10:09:24;;;;;;;7.15;1.98;;;;;;;9.20;85.70;100604.13;6071682;23;20111;-78
2023/04/24 10:11:53;;;;;;;2.00;1.60;;;;;;;9.33;84.63;100607.47;6071733;23;20016;-78
2023/04/24 10:14:22;;;;;;;5.28;1.98;;;;;;;9.39;83.41;100603.09;6069520;23;20102;-79
2023/04/24 10:16:52;;;;;;;4.07;2.13;;;;;;;9.44;82.49;100607.84;6093482;23;20026;-78
2023/04/24 10:19:18;;;;;;;6.25;1.85;;;;;;;9.45;83.02;100612.00;6071612;23;20026;-78
2023/04/24 10:21:46;;;;;;;3.95;1.40;;;;;;;9.47;83.32;100612.28;6071771;23;20026;-79
2023/04/24 10:24:15;;;;;;;7.68;2.15;;;;;;;9.57;82.49;100631.69;6071056;23;20023;-80
2023/04/24 10:26:43;;;;;;;4.30;1.80;;;;;;;9.52;82.08;100635.66;6072038;23;20466;-79
2023/04/24 10:29:12;;;;;;;3.58;1.73;;;;;;;9.40;82.37;100625.81;6070685;23;20025;-77
2023/04/24 10:31:39;;;;;;;3.05;1.10;;;;;;;9.48;81.98;100628.97;6072093;23;20166;-76
2023/04/24 10:34:06;;;;;;;3.15;1.00;;;;;;;9.57;80.18;100629.78;6093890;23;20087;-78
2023/04/24 10:36:35;;;;;;;6.57;1.13;;;;;;;9.72;81.24;100635.31;6071860;23;20071;-76
2023/04/24 10:39:03;;;;;;;4.40;1.05;;;;;;;9.81;80.85;100631.97;6071569;23;20473;-77
2023/04/24 10:41:31;;;;;;;3.55;1.20;;;;;;;9.86;78.36;100637.44;6071748;23;20027;-77
2023/04/24 10:44:11;;;;;;;1.13;0.80;;;;;;;10.00;80.03;100634.25;6070995;23;20432;-78
2023/04/24 10:46:39;;;;;;;1.33;0.80;;;;;;;10.19;79.63;100643.06;6071754;23;20453;-76
2023/04/24 10:49:10;;;;;;;3.20;0.98;;;;;;;10.27;79.03;100649.59;6071259;23;20023;-77
2023/04/24 10:51:50;;;;;;;1.58;0.50;;;;;;;10.18;78.96;100649.53;6072006;23;20094;-77
2023/04/24 10:54:24;;;;;;;2.08;1.02;;;;;;;9.92;78.69;100659.66;6071613;23;20045;-77
2023/04/24 10:56:51;;;;;;;3.65;0.95;;;;;;;9.69;79.29;100654.78;6071751;23;20053;-76
2023/04/24 10:59:34;;;;;;;5.97;1.08;;;;;;;9.69;80.87;100650.22;6087440;23;20026;-77
2023/04/24 11:02:01;;;;;;;2.90;0.95;;;;;;;9.79;80.04;100655.56;6100371;23;20374;-77
2023/04/24 11:04:33;;;;;;;2.40;1.02;;;;;;;9.81;79.43;100653.97;6100585;23;20023;-77
2023/04/24 11:06:59;;;;;;;6.63;0.90;;;;;;;9.83;79.02;100659.59;6099851;23;20019;-78
2023/04/24 11:09:28;;;;;;;5.45;1.00;;;;;;;9.80;80.08;100654.41;6100625;23;20015;-77
2023/04/24 11:12:07;;;;;;;2.22;0.93;;;;;;;9.74;80.80;100664.84;6100709;23;20078;-77
2023/04/24 11:14:56;;;;;;;2.97;1.23;;;;;;;9.66;81.02;100663.63;6100171;23;20476;-78
2023/04/24 11:17:39;;;;;;;6.75;3.33;;;;;;;9.54;81.86;100678.47;6100365;23;20094;-77
2023/04/24 11:20:12;;;;;;;4.57;1.25;;;;;;;9.44;83.30;100690.22;6100285;23;20445;-77
2023/04/24 11:23:03;;;;;;;4.43;1.10;;;;;;;9.25;84.39;100701.88;6100198;23;20099;-79
2023/04/24 11:25:30;;;;;;;2.55;1.10;;;;;;;9.13;85.48;100706.06;6100393;23;20023;-78
2023/04/24 11:28:05;;;;;;;3.88;1.00;;;;;;;9.15;86.58;100706.38;6099512;23;20019;-78
2023/04/24 11:30:36;;;;;;;2.40;0.88;;;;;;;9.31;86.56;100695.56;6100340;23;20015;-78
2023/04/24 11:33:04;;;;;;;1.47;0.90;;;;;;;9.57;87.26;100701.53;6099877;23;20019;-76
2023/04/24 11:35:41;;;;;;;1.75;1.63;;;;;;;9.84;86.11;100700.97;6100060;23;20019;-79